Time;durP1;ratioP1;P1;durP2;ratioP2;P2;SDS_P1;SDS_P2;PMS_P1;PMS_P2;Temp;Humidity;BMP_temperature;BMP_pressure;BME280_temperature;BME280_humidity;BME280_pressure;Samples;Min_cycle;Max_cycle;Signal;HPM_P1;HPM_P2
2023/12/25 00:00:52;;;;;;;;;;;;;;;15.12;95.72;100245.47;7297748;19;20497;-68
2023/12/25 00:03:19;;;;;;;;;;;;;;;15.14;95.06;100254.03;7303552;19;20463;-68
2023/12/25 00:05:46;;;;;;;;;;;;;;;15.16;94.93;100252.00;7294839;19;19926;-68
2023/12/25 00:08:13;;;;;;;;;;;;;;;15.16;95.71;100256.47;7296679;19;20248;-67
2023/12/25 00:10:40;;;;;;;;;;;;;;;15.18;96.01;100257.94;7301481;19;20336;-68
2023/12/25 00:13:06;;;;;;;;;;;;;;;15.19;95.81;100259.56;7302791;19;19926;-68
2023/12/25 00:15:33;;;;;;;;;;;;;;;15.17;95.73;100251.00;7294823;19;19919;-68
2023/12/25 00:18:00;;;;;;;;;;;;;;;15.17;95.77;100261.59;7298889;19;20154;-67
2023/12/25 00:20:27;;;;;;;;;;;;;;;15.16;95.81;100245.88;7302658;19;19922;-68
2023/12/25 00:22:54;;;;;;;;;;;;;;;15.17;96.26;100251.00;7289897;19;19922;-67
2023/12/25 00:25:21;;;;;;;;;;;;;;;15.15;96.26;100241.59;7288266;19;19926;-67
2023/12/25 00:27:48;;;;;;;;;;;;;;;15.15;96.03;100238.94;7297050;19;19929;-68
2023/12/25 00:30:15;;;;;;;;;;;;;;;15.14;96.16;100226.69;7300986;19;20576;-66
2023/12/25 00:32:42;;;;;;;;;;;;;;;15.14;96.91;100230.16;7281947;19;19925;-67
2023/12/25 00:35:09;;;;;;;;;;;;;;;15.13;96.90;100225.91;7286615;19;19918;-67
2023/12/25 00:37:36;;;;;;;;;;;;;;;15.10;96.80;100204.25;7292595;19;20452;-66
2023/12/25 00:40:03;;;;;;;;;;;;;;;15.08;96.73;100196.53;7297928;19;20295;-68
2023/12/25 00:42:30;;;;;;;;;;;;;;;15.08;97.00;100198.38;7287163;19;19927;-66
2023/12/25 00:44:57;;;;;;;;;;;;;;;15.06;97.76;100203.03;7295486;19;20026;-67
2023/12/25 00:47:24;;;;;;;;;;;;;;;15.05;97.61;100202.22;7293787;19;20197;-66
2023/12/25 00:49:51;;;;;;;;;;;;;;;15.03;97.48;100200.78;7293473;19;20087;-66
2023/12/25 00:52:19;;;;;;;;;;;;;;;15.01;97.52;100214.22;7306566;19;20293;-67
2023/12/25 00:54:49;;;;;;;;;;;;;;;15.01;97.71;100200.97;7304049;19;20465;-67
2023/12/25 00:57:16;;;;;;;;;;;;;;;14.98;98.53;100204.03;7292848;19;19919;-65
2023/12/25 00:59:43;;;;;;;;;;;;;;;14.99;98.45;100208.28;7301655;19;19915;-68
2023/12/25 01:02:10;;;;;;;;;;;;;;;14.99;98.09;100209.09;7297845;19;20661;-67
2023/12/25 01:04:37;;;;;;;;;;;;;;;14.99;98.40;100208.28;7304037;19;19915;-67
2023/12/25 01:07:04;;;;;;;;;;;;;;;15.01;98.34;100216.88;7294805;19;19964;-67
2023/12/25 01:09:32;;;;;;;;;;;;;;;15.02;98.53;100213.22;7286138;19;20506;-66
2023/12/25 01:11:59;;;;;;;;;;;;;;;15.01;98.68;100208.09;7296536;19;20574;-67
2023/12/25 01:14:26;;;;;;;;;;;;;;;14.93;98.52;100214.41;7289705;19;19937;-67
2023/12/25 01:16:53;;;;;;;;;;;;;;;14.92;98.71;100216.22;7296720;19;20607;-66
2023/12/25 01:19:20;;;;;;;;;;;;;;;14.92;98.89;100208.28;7311090;19;20003;-66
2023/12/25 01:21:47;;;;;;;;;;;;;;;14.93;98.84;100212.53;7288600;19;20295;-66
2023/12/25 01:24:14;;;;;;;;;;;;;;;14.94;98.64;100230.06;7293990;19;19925;-66
2023/12/25 01:26:41;;;;;;;;;;;;;;;14.94;98.80;100219.47;7284304;19;20085;-67
2023/12/25 01:29:07;;;;;;;;;;;;;;;14.93;98.54;100219.69;7292578;19;20941;-68
2023/12/25 01:31:35;;;;;;;;;;;;;;;14.97;98.79;100228.88;7291531;19;19927;-67
2023/12/25 01:34:02;;;;;;;;;;;;;;;14.95;98.85;100226.41;7291069;19;19918;-67
2023/12/25 01:36:29;;;;;;;;;;;;;;;14.95;98.73;100241.50;7295324;19;19990;-66
2023/12/25 01:38:56;;;;;;;;;;;;;;;15.02;99.37;100236.25;7284576;19;19923;-67
2023/12/25 01:41:23;;;;;;;;;;;;;;;15.02;99.34;100242.34;7297150;19;19939;-66
2023/12/25 01:43:50;;;;;;;;;;;;;;;15.03;99.85;100236.06;7310098;19;19995;-66
2023/12/25 01:46:16;;;;;;;;;;;;;;;15.05;100.00;100246.44;7292417;19;20632;-66
2023/12/25 01:48:43;;;;;;;;;;;;;;;15.03;100.00;100236.06;7295170;19;19927;-65
2023/12/25 01:51:11;;;;;;;;;;;;;;;15.01;100.00;100229.28;7311776;19;19927;-67
2023/12/25 01:53:38;;;;;;;;;;;;;;;15.02;100.00;100220.34;7294646;19;19972;-67
2023/12/25 01:56:05;;;;;;;;;;;;;;;15.02;100.00;100230.94;7290915;19;19918;-67
2023/12/25 01:58:32;;;;;;;;;;;;;;;15.00;100.00;100228.47;7296296;19;21017;-67
2023/12/25 02:00:59;;;;;;;;;;;;;;;14.97;100.00;100235.00;7289593;19;19929;-67
2023/12/25 02:03:26;;;;;;;;;;;;;;;14.97;100.00;100245.59;7287997;19;19915;-67
2023/12/25 02:05:53;;;;;;;;;;;;;;;14.91;100.00;100232.31;7305606;19;19927;-67
2023/12/25 02:08:24;;;;;;;;;;;;;;;14.88;100.00;100224.75;7293653;19;21588;-66
2023/12/25 02:10:53;;;;;;;;;;;;;;;14.85;100.00;100227.78;7300727;19;19990;-67
2023/12/25 02:13:19;;;;;;;;;;;;;;;14.84;100.00;100232.25;7296734;19;20497;-66
2023/12/25 02:15:48;;;;;;;;;;;;;;;14.85;100.00;100235.72;7289417;19;20357;-67
2023/12/25 02:18:15;;;;;;;;;;;;;;;14.82;100.00;100231.66;7300098;19;19990;-67
2023/12/25 02:20:42;;;;;;;;;;;;;;;14.82;100.00;100231.66;7300612;19;20011;-66
2023/12/25 02:23:11;;;;;;;;;;;;;;;14.82;100.00;100241.44;7287109;19;20501;-66
2023/12/25 02:25:57;;;;;;;;;;;;;;;14.82;100.00;100244.09;7292309;19;19939;-67
2023/12/25 02:28:25;;;;;;;;;;;;;;;14.80;100.00;100233.66;7294097;19;20267;-67
2023/12/25 02:30:52;;;;;;;;;;;;;;;14.79;100.00;100233.84;7296997;19;19929;-66
2023/12/25 02:33:19;;;;;;;;;;;;;;;14.80;100.00;100251.38;7298491;19;20366;-67
2023/12/25 02:35:46;;;;;;;;;;;;;;;14.77;100.00;100243.84;7299616;19;20158;-66
2023/12/25 02:38:13;;;;;;;;;;;;;;;14.76;100.00;100240.38;7316614;19;20655;-66
2023/12/25 02:40:40;;;;;;;;;;;;;;;14.75;100.00;100243.22;7298655;19;19929;-67
2023/12/25 02:43:07;;;;;;;;;;;;;;;14.76;100.00;100242.19;7300107;19;20979;-66
2023/12/25 02:45:34;;;;;;;;;;;;;;;14.77;100.00;100243.84;7288041;19;19923;-67
2023/12/25 02:48:02;;;;;;;;;;;;;;;14.74;100.00;100247.69;7277002;19;19967;-67
2023/12/25 02:50:29;;;;;;;;;;;;;;;14.74;100.00;100258.28;7299715;19;20041;-67
2023/12/25 02:52:56;;;;;;;;;;;;;;;14.73;100.00;100248.69;7292741;19;19949;-66
2023/12/25 02:55:23;;;;;;;;;;;;;;;14.72;100.00;100260.31;7292761;19;20620;-67
2023/12/25 02:57:50;;;;;;;;;;;;;;;14.75;100.00;100267.03;7290835;19;19926;-67
2023/12/25 03:00:17;;;;;;;;;;;;;;;14.74;100.00;100268.88;7287271;19;19919;-67
2023/12/25 03:02:44;;;;;;;;;;;;;;;14.72;100.00;100264.78;7291387;19;20636;-67
2023/12/25 03:05:11;;;;;;;;;;;;;;;14.71;100.00;100261.31;7276961;19;19960;-67
2023/12/25 03:07:37;;;;;;;;;;;;;;;14.72;100.00;100273.56;7284865;19;20707;-66
2023/12/25 03:10:05;;;;;;;;;;;;;;;14.73;100.00;100263.78;7297673;19;21292;-67
2023/12/25 03:12:31;;;;;;;;;;;;;;;14.73;100.00;100263.78;7312324;19;20001;-67
2023/12/25 03:14:58;;;;;;;;;;;;;;;14.73;100.00;100261.94;7313019;19;20070;-66
2023/12/25 03:17:25;;;;;;;;;;;;;;;14.72;100.00;100260.31;7282662;19;19929;-67
2023/12/25 03:19:52;;;;;;;;;;;;;;;14.74;100.00;100268.88;7292716;19;19930;-67
2023/12/25 03:22:20;;;;;;;;;;;;;;;14.70;100.00;100261.50;7288117;19;20390;-67
2023/12/25 03:24:46;;;;;;;;;;;;;;;14.71;100.00;100279.03;7301423;19;21002;-66
2023/12/25 03:27:13;;;;;;;;;;;;;;;14.70;100.00;100269.47;7293758;19;22473;-67
2023/12/25 03:29:40;;;;;;;;;;;;;;;14.70;100.00;100278.22;7299068;19;20589;-67
2023/12/25 03:32:07;;;;;;;;;;;;;;;14.71;100.00;100279.03;7282955;19;19923;-67
2023/12/25 03:34:44;;;;;;;;;;;;;;;14.73;100.00;100279.69;7298024;19;20447;-67
2023/12/25 03:37:11;;;;;;;;;;;;;;;14.74;100.00;100282.13;7297557;19;20428;-67
2023/12/25 03:39:37;;;;;;;;;;;;;;;14.74;100.00;100276.00;7304475;19;19911;-66
2023/12/25 03:42:04;;;;;;;;;;;;;;;14.73;100.00;100269.88;7305019;19;20432;-66
2023/12/25 03:44:31;;;;;;;;;;;;;;;14.77;100.00;100272.97;7310346;19;19918;-66
2023/12/25 03:46:58;;;;;;;;;;;;;;;14.78;100.00;100282.56;7304478;19;19935;-67
2023/12/25 03:49:25;;;;;;;;;;;;;;;14.79;100.00;100276.22;7310210;19;19937;-67
2023/12/25 03:51:52;;;;;;;;;;;;;;;14.80;100.00;100272.59;7321618;19;20272;-67
2023/12/25 03:54:19;;;;;;;;;;;;;;;14.80;100.00;100276.06;7318486;19;19922;-66
2023/12/25 03:56:46;;;;;;;;;;;;;;;14.80;100.00;100277.88;7288257;19;20925;-67
2023/12/25 03:59:13;;;;;;;;;;;;;;;14.80;100.00;100268.09;7303127;19;20271;-67
2023/12/25 04:01:42;;;;;;;;;;;;;;;14.80;100.00;100276.06;7294828;19;19919;-67
2023/12/25 04:04:08;;;;;;;;;;;;;;;14.83;100.00;100256.31;7307372;19;19922;-67
2023/12/25 04:06:35;;;;;;;;;;;;;;;14.84;100.00;100257.94;7300861;19;19963;-67
2023/12/25 04:09:04;;;;;;;;;;;;;;;14.83;100.00;100262.41;7299503;19;19922;-67
2023/12/25 04:11:30;;;;;;;;;;;;;;;14.85;100.00;100259.56;7309352;19;20131;-66
2023/12/25 04:13:58;;;;;;;;;;;;;;;14.84;100.00;100258.75;7292108;19;19923;-66
2023/12/25 04:16:26;;;;;;;;;;;;;;;14.84;100.00;100263.22;7312260;19;20018;-66
2023/12/25 04:18:55;;;;;;;;;;;;;;;14.86;100.00;100251.44;7291104;19;19994;-65
2023/12/25 04:21:26;;;;;;;;;;;;;;;14.84;100.00;100250.81;7288506;19;19997;-66
2023/12/25 04:23:54;;;;;;;;;;;;;;;14.83;100.00;100248.38;7300711;19;19914;-66
2023/12/25 04:26:21;;;;;;;;;;;;;;;14.85;100.00;100254.28;7299824;19;20071;-66
2023/12/25 04:28:49;;;;;;;;;;;;;;;14.86;100.00;100255.91;7297016;19;20243;-67
2023/12/25 04:31:16;;;;;;;;;;;;;;;14.86;100.00;100245.31;7306381;19;19927;-66
2023/12/25 04:33:43;;;;;;;;;;;;;;;14.85;100.00;100248.97;7293767;19;19918;-67
2023/12/25 04:36:10;;;;;;;;;;;;;;;14.84;100.00;100260.56;7290218;19;20491;-67
2023/12/25 04:38:37;;;;;;;;;;;;;;;14.84;100.00;100263.22;7298164;19;20018;-66
2023/12/25 04:41:05;;;;;;;;;;;;;;;14.82;100.00;100266.09;7293360;19;20624;-67
2023/12/25 04:43:32;;;;;;;;;;;;;;;14.85;100.00;100265.69;7316498;19;19925;-66
2023/12/25 04:45:58;;;;;;;;;;;;;;;14.86;100.00;100256.75;7295160;19;20653;-66
2023/12/25 04:48:29;;;;;;;;;;;;;;;14.85;100.00;100251.63;7291822;19;19986;-67
2023/12/25 04:50:58;;;;;;;;;;;;;;;14.86;100.00;100240.03;7295235;19;20013;-66
2023/12/25 04:53:25;;;;;;;;;;;;;;;14.86;100.00;100251.44;7302990;19;19914;-66
2023/12/25 04:55:52;;;;;;;;;;;;;;;14.85;100.00;100254.28;7304871;19;19927;-67
2023/12/25 04:58:20;;;;;;;;;;;;;;;14.87;100.00;100263.69;7293000;19;19957;-67
2023/12/25 05:00:46;;;;;;;;;;;;;;;14.88;99.72;100254.69;7285755;19;20276;-67
2023/12/25 05:03:13;;;;;;;;;;;;;;;14.88;99.96;100251.25;7284955;19;19923;-66
2023/12/25 05:05:40;;;;;;;;;;;;;;;14.88;99.15;100245.97;7302180;19;20217;-66
2023/12/25 05:08:07;;;;;;;;;;;;;;;14.85;99.64;100249.78;7297300;19;19955;-66
2023/12/25 05:10:34;;;;;;;;;;;;;;;14.84;99.36;100249.97;7309961;19;19929;-67
2023/12/25 05:13:01;;;;;;;;;;;;;;;14.82;99.58;100254.69;7296394;19;19923;-67
2023/12/25 05:15:28;;;;;;;;;;;;;;;14.81;99.96;100253.84;7296056;19;20450;-67
2023/12/25 05:17:55;;;;;;;;;;;;;;;14.80;99.89;100248.75;7298093;19;20403;-67
2023/12/25 05:20:22;;;;;;;;;;;;;;;14.79;99.54;100253.22;7287586;19;19931;-67
2023/12/25 05:22:49;;;;;;;;;;;;;;;14.78;99.50;100256.09;7288377;19;19922;-67
2023/12/25 05:25:16;;;;;;;;;;;;;;;14.78;99.93;100248.94;7290273;19;20329;-69
2023/12/25 05:27:43;;;;;;;;;;;;;;;14.80;99.65;100254.88;7292957;19;19919;-67
2023/12/25 05:30:10;;;;;;;;;;;;;;;14.81;99.85;100261.81;7291910;19;21487;-67
2023/12/25 05:32:37;;;;;;;;;;;;;;;14.82;99.89;100257.31;7287712;19;19910;-68
2023/12/25 05:35:05;;;;;;;;;;;;;;;14.83;99.66;100262.41;7295272;19;20390;-66
2023/12/25 05:37:32;;;;;;;;;;;;;;;14.82;99.51;100258.16;7290681;19;20186;-66
2023/12/25 05:40:00;;;;;;;;;;;;;;;14.85;99.23;100260.41;7293807;19;20837;-67
2023/12/25 05:42:27;;;;;;;;;;;;;;;14.85;98.97;100259.56;7299648;19;19922;-66
2023/12/25 05:44:54;;;;;;;;;;;;;;;14.85;99.22;100262.22;7295783;19;20280;-67
2023/12/25 05:47:21;;;;;;;;;;;;;;;14.82;99.27;100263.44;7307793;19;20417;-67
2023/12/25 05:49:48;;;;;;;;;;;;;;;14.83;99.17;100267.69;7298131;19;21552;-67
2023/12/25 05:52:15;;;;;;;;;;;;;;;14.83;99.01;100264.25;7290765;19;19929;-67
2023/12/25 05:54:42;;;;;;;;;;;;;;;14.84;99.06;100271.16;7300038;19;20391;-67
2023/12/25 05:57:09;;;;;;;;;;;;;;;14.83;99.72;100265.06;7299293;19;19923;-67
2023/12/25 05:59:37;;;;;;;;;;;;;;;14.86;100.00;100269.16;7291168;19;19918;-67
2023/12/25 06:02:04;;;;;;;;;;;;;;;14.87;99.80;100276.09;7285180;19;19926;-66
2023/12/25 06:04:31;;;;;;;;;;;;;;;14.87;99.91;100282.22;7288193;19;19939;-67
2023/12/25 06:06:58;;;;;;;;;;;;;;;14.86;99.96;100277.94;7291350;19;19919;-67
2023/12/25 06:09:25;;;;;;;;;;;;;;;14.85;100.00;100275.47;7289687;19;20340;-67
2023/12/25 06:11:53;;;;;;;;;;;;;;;14.82;100.00;100281.97;7290425;19;20006;-67
2023/12/25 06:14:20;;;;;;;;;;;;;;;14.81;100.00;100269.75;7286654;19;19930;-67
2023/12/25 06:16:47;;;;;;;;;;;;;;;14.81;100.00;100277.69;7294591;19;20671;-67
2023/12/25 06:19:14;;;;;;;;;;;;;;;14.81;100.00;100283.00;7287986;19;21134;-69
2023/12/25 06:21:41;;;;;;;;;;;;;;;14.79;100.00;100285.00;7288325;19;20543;-67
2023/12/25 06:24:08;;;;;;;;;;;;;;;14.77;100.00;100291.53;7293343;19;19927;-67
2023/12/25 06:26:39;;;;;;;;;;;;;;;14.74;100.00;100289.25;7280228;19;20330;-66
2023/12/25 06:29:06;;;;;;;;;;;;;;;14.74;100.00;100291.88;7289842;19;20595;-66
2023/12/25 06:31:32;;;;;;;;;;;;;;;14.72;100.00;100285.97;7290596;19;19982;-68
2023/12/25 06:33:59;;;;;;;;;;;;;;;14.69;100.00;100284.53;7289976;19;20418;-66
2023/12/25 06:36:26;;;;;;;;;;;;;;;14.70;100.00;100290.63;7279722;19;19919;-66
2023/12/25 06:38:53;;;;;;;;;;;;;;;14.70;100.00;100298.59;7291948;19;20662;-66
2023/12/25 06:41:20;;;;;;;;;;;;;;;14.71;100.00;100303.69;7296047;19;19915;-66
2023/12/25 06:43:47;;;;;;;;;;;;;;;14.69;100.00;100311.00;7288000;19;20544;-66
2023/12/25 06:46:14;;;;;;;;;;;;;;;14.68;100.00;100305.94;7293100;19;19928;-67
2023/12/25 06:48:41;;;;;;;;;;;;;;;14.66;100.00;100322.00;7287363;19;19926;-67
2023/12/25 06:51:08;;;;;;;;;;;;;;;14.66;100.00;100331.78;7289650;19;20420;-67
2023/12/25 06:53:35;;;;;;;;;;;;;;;14.65;100.00;100324.81;7309215;19;19953;-68
2023/12/25 06:56:03;;;;;;;;;;;;;;;14.60;100.00;100316.63;7302098;19;19955;-68
2023/12/25 06:58:30;;;;;;;;;;;;;;;14.55;100.00;100325.97;7298156;19;19915;-66
2023/12/25 07:00:59;;;;;;;;;;;;;;;14.54;100.00;100307.63;7299358;19;19919;-67
2023/12/25 07:03:26;;;;;;;;;;;;;;;14.52;100.00;100317.59;7287810;19;19934;-67
2023/12/25 07:05:53;;;;;;;;;;;;;;;14.50;100.00;100315.16;7286782;19;19955;-67
2023/12/25 07:08:20;;;;;;;;;;;;;;;14.49;100.00;100310.03;7295441;19;19918;-66
2023/12/25 07:10:46;;;;;;;;;;;;;;;14.48;100.00;100316.31;7299223;19;19946;-67
2023/12/25 07:13:13;;;;;;;;;;;;;;;14.46;100.00;100310.44;7300815;19;20899;-66
2023/12/25 07:15:40;;;;;;;;;;;;;;;14.41;100.00;100308.34;7296572;19;21213;-66
2023/12/25 07:18:07;;;;;;;;;;;;;;;14.40;100.00;100322.59;7296486;19;19934;-66
2023/12/25 07:20:36;;;;;;;;;;;;;;;14.37;100.00;100317.69;7297053;19;19938;-67
2023/12/25 07:23:05;;;;;;;;;;;;;;;14.34;100.00;100325.97;7289561;19;20205;-67
2023/12/25 07:25:32;;;;;;;;;;;;;;;14.32;100.00;100316.59;7291553;19;19926;-67
2023/12/25 07:28:03;;;;;;;;;;;;;;;14.32;100.00;100308.66;7295872;19;22524;-66
2023/12/25 07:30:31;;;;;;;;;;;;;;;14.29;100.00;100303.72;7285056;19;20352;-66
2023/12/25 07:32:58;;;;;;;;;;;;;;;14.28;100.00;100332.00;7304351;19;20296;-66
2023/12/25 07:35:26;;;;;;;;;;;;;;;14.28;100.00;100328.53;7283830;19;19918;-67
2023/12/25 07:37:54;;;;;;;;;;;;;;;14.28;100.00;100339.94;7299080;19;20438;-66
2023/12/25 07:40:21;;;;;;;;;;;;;;;14.24;100.00;100351.09;7292541;19;19923;-66
2023/12/25 07:42:52;;;;;;;;;;;;;;;14.21;100.00;100356.78;7288401;19;19918;-66
2023/12/25 07:45:19;;;;;;;;;;;;;;;14.18;100.00;100357.97;7304557;19;20374;-67
2023/12/25 07:47:47;;;;;;;;;;;;;;;14.15;100.00;100355.69;7281594;19;20308;-65
2023/12/25 07:50:15;;;;;;;;;;;;;;;14.12;100.00;100350.75;7287005;19;19922;-67
2023/12/25 07:52:42;;;;;;;;;;;;;;;14.10;100.00;100350.97;7283407;19;19991;-67
2023/12/25 07:55:09;;;;;;;;;;;;;;;14.08;100.00;100366.19;7286945;19;19981;-67
2023/12/25 07:57:36;;;;;;;;;;;;;;;14.05;100.00;100358.66;7284305;19;20260;-67
2023/12/25 08:00:03;;;;;;;;;;;;;;;14.03;100.00;100354.53;7292277;19;20496;-67
2023/12/25 08:02:30;;;;;;;;;;;;;;;14.00;100.00;100362.84;7292102;19;19927;-68
2023/12/25 08:04:57;;;;;;;;;;;;;;;14.00;100.00;100354.94;7282660;19;20175;-66
2023/12/25 08:07:24;;;;;;;;;;;;;;;13.97;100.00;100364.03;7289218;19;20369;-65
2023/12/25 08:09:51;;;;;;;;;;;;;;;13.99;100.00;100355.94;7297851;19;19959;-67
2023/12/25 08:12:18;;;;;;;;;;;;;;;13.97;100.00;100366.69;7300224;19;19956;-67
2023/12/25 08:14:45;;;;;;;;;;;;;;;14.01;100.00;100356.56;7300091;19;20301;-67
2023/12/25 08:17:12;;;;;;;;;;;;;;;14.01;100.00;100352.09;7306622;19;20318;-66
2023/12/25 08:19:39;;;;;;;;;;;;;;;14.03;100.00;100368.59;7297771;19;20213;-66
2023/12/25 08:22:06;;;;;;;;;;;;;;;14.01;100.00;100370.63;7305560;19;20449;-66
2023/12/25 08:24:35;;;;;;;;;;;;;;;14.02;100.00;100371.41;7309939;19;20698;-66
2023/12/25 08:27:03;;;;;;;;;;;;;;;14.04;100.00;100380.81;7288180;19;19919;-67
2023/12/25 08:29:32;;;;;;;;;;;;;;;14.07;100.00;100379.59;7291077;19;19926;-67
2023/12/25 08:31:59;;;;;;;;;;;;;;;14.08;100.00;100379.44;7285682;19;20260;-67
2023/12/25 08:34:27;;;;;;;;;;;;;;;14.06;100.00;100381.47;7296652;19;19919;-66
2023/12/25 08:36:54;;;;;;;;;;;;;;;14.04;100.00;100382.63;7319338;19;19919;-67
2023/12/25 08:39:21;;;;;;;;;;;;;;;14.01;100.00;100378.56;7320268;19;20429;-66
2023/12/25 08:41:48;;;;;;;;;;;;;;;14.00;100.00;100373.44;7319517;19;19929;-66
2023/12/25 08:44:15;;;;;;;;;;;;;;;13.99;100.00;100383.19;7315048;19;19922;-67
2023/12/25 08:46:45;;;;;;;;;;;;;;;13.97;100.00;100377.25;7292360;19;20267;-65
2023/12/25 08:49:15;;;;;;;;;;;;;;;13.96;100.00;100388.06;7299693;19;19976;-66
2023/12/25 08:51:43;;;;;;;;;;;;;;;13.94;100.00;100390.88;7297480;19;19918;-67
2023/12/25 08:54:10;;;;;;;;;;;;;;;13.90;100.00;100381.69;7291185;19;19919;-68
2023/12/25 08:56:38;;;;;;;;;;;;;;;13.89;100.00;100409.13;7293653;19;19930;-67
2023/12/25 08:59:06;;;;;;;;;;;;;;;13.91;100.00;100414.25;7311509;19;20415;-67
2023/12/25 09:01:33;;;;;;;;;;;;;;;13.89;100.00;100424.16;7301918;19;19951;-66
2023/12/25 09:04:00;;;;;;;;;;;;;;;13.90;100.00;100423.16;7289285;19;19930;-67
2023/12/25 09:06:31;;;;;;;;;;;;;;;13.91;100.00;100427.47;7280505;19;21650;-66
2023/12/25 09:09:06;;;;;;;;;;;;;;;13.90;100.00;100417.88;7298361;19;20237;-67
2023/12/25 09:11:33;;;;;;;;;;;;;;;13.92;100.00;100421.97;7299592;19;20306;-68
2023/12/25 09:14:00;;;;;;;;;;;;;;;13.93;100.00;100410.38;7306675;19;19933;-66
2023/12/25 09:16:34;;;;;;;;;;;;;;;13.94;100.00;100432.38;7294870;19;20587;-67
2023/12/25 09:19:03;;;;;;;;;;;;;;;13.96;100.00;100433.03;7296642;19;19915;-66
2023/12/25 09:21:36;;;;;;;;;;;;;;;13.95;100.00;100431.38;7295483;19;19949;-67
2023/12/25 09:24:03;;;;;;;;;;;;;;;13.92;100.00;100432.53;7293700;19;19920;-66
2023/12/25 09:26:34;;;;;;;;;;;;;;;13.92;100.00;100435.19;7286738;19;19922;-67
2023/12/25 09:29:09;;;;;;;;;;;;;;;13.91;100.00;100433.56;7304796;19;19915;-67
2023/12/25 09:31:36;;;;;;;;;;;;;;;13.93;100.00;100443.94;7297996;19;19919;-66
2023/12/25 09:34:03;;;;;;;;;;;;;;;13.92;100.00;100437.00;7300254;19;20378;-67
2023/12/25 09:36:34;;;;;;;;;;;;;;;13.93;100.00;100443.94;7291483;19;20447;-66
2023/12/25 09:39:03;;;;;;;;;;;;;;;13.96;100.00;100447.06;7298917;19;20001;-67
2023/12/25 09:41:32;;;;;;;;;;;;;;;13.96;100.00;100451.53;7301166;19;21059;-66
2023/12/25 09:44:03;;;;;;;;;;;;;;;13.96;100.00;100448.88;7319330;19;19962;-66
2023/12/25 09:46:34;;;;;;;;;;;;;;;13.93;100.00;100447.41;7290817;19;19923;-66
2023/12/25 09:49:09;;;;;;;;;;;;;;;13.95;100.00;100453.34;7281556;19;20731;-67
2023/12/25 09:51:38;;;;;;;;;;;;;;;13.97;100.00;100448.69;7296544;19;22197;-67
2023/12/25 09:54:05;;;;;;;;;;;;;;;14.02;100.00;100456.06;7287119;19;19963;-66
2023/12/25 09:56:35;;;;;;;;;;;;;;;14.04;100.00;100468.13;7292621;19;21585;-67
2023/12/25 09:59:07;;;;;;;;;;;;;;;14.08;100.00;100465.91;7297773;19;19915;-67
2023/12/25 10:01:37;;;;;;;;;;;;;;;14.10;100.00;100466.56;7290638;19;19923;-68
2023/12/25 10:04:04;;;;;;;;;;;;;;;14.11;100.00;100468.22;7290602;19;19927;-67
2023/12/25 10:06:34;;;;;;;;;;;;;;;14.08;100.00;100456.16;7300122;19;20460;-66
2023/12/25 10:09:03;;;;;;;;;;;;;;;14.10;100.00;100471.84;7282467;19;19956;-67
2023/12/25 10:11:30;;;;;;;;;;;;;;;14.13;100.00;100463.53;7289608;19;19941;-66
2023/12/25 10:13:58;;;;;;;;;;;;;;;14.19;100.00;100480.50;7294277;19;19922;-68
2023/12/25 10:16:27;;;;;;;;;;;;;;;14.22;100.00;100482.81;7294746;19;20362;-66
2023/12/25 10:18:56;;;;;;;;;;;;;;;14.22;100.00;100488.09;7298480;19;20435;-67
2023/12/25 10:21:23;;;;;;;;;;;;;;;14.26;100.00;100497.28;7305176;19;19946;-67
2023/12/25 10:23:51;;;;;;;;;;;;;;;14.27;100.00;100480.41;7309090;19;19929;-67
2023/12/25 10:26:31;;;;;;;;;;;;;;;14.31;100.00;100479.03;7299743;19;20133;-67
2023/12/25 10:29:09;;;;;;;;;;;;;;;14.33;100.00;100469.06;7302243;19;19927;-67
2023/12/25 10:31:38;;;;;;;;;;;;;;;14.34;100.00;100466.25;7294445;19;20485;-66
2023/12/25 10:34:06;;;;;;;;;;;;;;;14.31;100.00;100466.63;7283370;19;19974;-67
2023/12/25 10:36:37;;;;;;;;;;;;;;;14.32;100.00;100473.56;7291201;19;19921;-67
2023/12/25 10:39:07;;;;;;;;;;;;;;;14.30;99.09;100469.44;7292694;19;19959;-67
2023/12/25 10:41:35;;;;;;;;;;;;;;;14.30;98.73;100477.38;7297818;19;20770;-66
2023/12/25 10:44:04;;;;;;;;;;;;;;;14.30;99.10;100474.75;7302272;19;20775;-67
2023/12/25 10:46:37;;;;;;;;;;;;;;;14.32;99.17;100473.56;7285636;19;19927;-66
2023/12/25 10:49:06;;;;;;;;;;;;;;;14.38;100.00;100483.41;7291292;19;19940;-67
2023/12/25 10:51:34;;;;;;;;;;;;;;;14.40;100.00;100475.28;7292259;19;20010;-67
2023/12/25 10:54:05;;;;;;;;;;;;;;;14.40;99.81;100465.53;7291413;19;19946;-67
2023/12/25 10:56:46;;;;;;;;;;;;;;;14.37;99.45;100457.97;7279902;19;19964;-67
2023/12/25 10:59:21;;;;;;;;;;;;;;;14.38;99.66;100451.66;7292394;19;20469;-67
2023/12/25 11:01:49;;;;;;;;;;;;;;;14.38;99.57;100453.47;7291969;19;19919;-65
2023/12/25 11:04:20;;;;;;;;;;;;;;;14.38;99.78;100453.47;7315476;19;22208;-66
2023/12/25 11:06:49;;;;;;;;;;;;;;;14.37;99.15;100452.69;7288243;19;19919;-67
2023/12/25 11:09:20;;;;;;;;;;;;;;;14.37;99.26;100446.56;7284152;19;20030;-66
2023/12/25 11:11:47;;;;;;;;;;;;;;;14.38;98.81;100435.78;7290837;19;20778;-67
2023/12/25 11:14:15;;;;;;;;;;;;;;;14.37;98.60;100436.81;7295806;19;20022;-68
2023/12/25 11:16:43;;;;;;;;;;;;;;;14.41;98.68;100431.94;7296458;19;19968;-66
2023/12/25 11:19:12;;;;;;;;;;;;;;;14.43;98.73;100428.09;7302738;19;20223;-66
2023/12/25 11:21:41;;;;;;;;;;;;;;;14.41;97.95;100426.66;7290055;19;19959;-67
2023/12/25 11:24:08;;;;;;;;;;;;;;;14.43;97.67;100419.31;7289481;19;19915;-66
2023/12/25 11:26:38;;;;;;;;;;;;;;;14.43;97.49;100435.19;7299176;19;21925;-66
2023/12/25 11:29:10;;;;;;;;;;;;;;;14.42;97.36;100423.00;7300285;19;20230;-67
2023/12/25 11:31:44;;;;;;;;;;;;;;;14.42;97.59;100420.34;7291422;19;20617;-66
2023/12/25 11:34:19;;;;;;;;;;;;;;;14.39;97.57;100418.06;7283724;19;20026;-67
2023/12/25 11:37:03;;;;;;;;;;;;;;;14.35;97.27;100408.84;7277717;19;20177;-66
2023/12/25 11:39:32;;;;;;;;;;;;;;;14.37;97.40;100409.50;7287101;19;20593;-65
2023/12/25 11:42:00;;;;;;;;;;;;;;;14.36;97.79;100408.69;7285164;19;19994;-67
2023/12/25 11:44:32;;;;;;;;;;;;;;;14.35;97.24;100407.00;7308204;19;19957;-66
2023/12/25 11:47:03;;;;;;;;;;;;;;;14.33;96.75;100398.44;7282642;19;20430;-67
2023/12/25 11:49:32;;;;;;;;;;;;;;;14.33;96.10;100392.31;7295750;19;19921;-65
2023/12/25 11:51:59;;;;;;;;;;;;;;;14.30;96.38;100408.56;7288732;19;19921;-66
2023/12/25 11:54:35;;;;;;;;;;;;;;;14.33;96.27;100410.84;7307259;19;19938;-67
2023/12/25 11:57:19;;;;;;;;;;;;;;;14.37;96.42;100418.28;7295017;19;20573;-65
2023/12/25 11:59:51;;;;;;;;;;;;;;;14.44;96.55;100434.19;7304130;19;19994;-66
2023/12/25 12:02:18;;;;;;;;;;;;;;;14.47;96.70;100428.56;7297137;19;20223;-67
2023/12/25 12:04:46;;;;;;;;;;;;;;;14.50;96.06;100422.88;7291270;19;19986;-67
2023/12/25 12:07:17;;;;;;;;;;;;;;;14.51;95.75;100421.88;7302582;19;19921;-67
2023/12/25 12:09:45;;;;;;;;;;;;;;;14.55;95.79;100426.59;7300712;19;19948;-67
2023/12/25 12:12:13;;;;;;;;;;;;;;;14.57;95.55;100421.13;7304632;19;20474;-67
2023/12/25 12:14:40;;;;;;;;;;;;;;;14.56;95.34;100419.47;7299573;19;19926;-67
2023/12/25 12:17:09;;;;;;;;;;;;;;;14.52;95.08;100410.28;7291021;19;19925;-67
2023/12/25 12:19:38;;;;;;;;;;;;;;;14.46;94.57;100419.78;7298850;19;19951;-67
2023/12/25 12:22:06;;;;;;;;;;;;;;;14.46;95.86;100422.44;7307352;19;19923;-67
2023/12/25 12:24:33;;;;;;;;;;;;;;;14.48;96.40;100409.81;7301325;19;20980;-67
2023/12/25 12:27:08;;;;;;;;;;;;;;;14.50;96.78;100407.81;7290699;19;21880;-67
2023/12/25 12:29:37;;;;;;;;;;;;;;;14.51;97.11;100403.34;7317745;19;20066;-66
2023/12/25 12:32:05;;;;;;;;;;;;;;;14.50;97.06;100407.81;7300795;19;22340;-67
2023/12/25 12:34:32;;;;;;;;;;;;;;;14.51;97.48;100395.41;7295912;19;19923;-67